createdAt,value
2019-02-02T10:18:22.802Z,994.21
2019-02-02T10:19:22.873Z,994.17
2019-02-02T10:20:23.015Z,994.16
2019-02-02T10:21:41.464Z,994.17
2019-02-02T10:22:41.742Z,994.21
2019-02-02T10:23:41.625Z,994.14
2019-02-02T10:24:59.026Z,994.14
2019-02-02T10:25:59.124Z,994.06
2019-02-02T10:26:59.251Z,994.18
2019-02-02T10:27:59.260Z,994.21
2019-02-02T10:28:59.522Z,994.22
2019-02-02T10:29:59.395Z,994.14
2019-02-02T10:30:54.847Z,994.13
2019-02-02T10:31:54.956Z,994.13
2019-02-02T10:33:07.188Z,994.23
2019-02-02T10:34:05.052Z,994.23
2019-02-02T10:35:05.243Z,994.25
2019-02-02T10:35:57.781Z,994.28
2019-02-02T10:37:04.196Z,994.22
2019-02-02T10:38:16.239Z,994.31
2019-02-02T10:39:04.157Z,994.28
2019-02-02T10:40:10.695Z,994.29
2019-02-02T10:41:06.665Z,994.33
2019-02-02T10:42:07.609Z,994.27
2019-02-02T10:43:02.010Z,994.24
2019-02-02T10:44:08.844Z,994.21
2019-02-02T10:45:08.952Z,994.28
2019-02-02T10:46:10.847Z,994.26
2019-02-02T10:47:09.192Z,994.26
2019-02-02T10:48:09.412Z,994.34
2019-02-02T10:49:09.564Z,994.31
2019-02-02T10:50:09.572Z,994.25
2019-02-02T10:51:09.703Z,994.26
2019-02-02T10:52:09.753Z,994.29
2019-02-02T10:53:09.859Z,994.25
2019-02-02T10:54:10.058Z,994.29
2019-02-02T10:55:10.045Z,994.26
2019-02-02T10:56:10.119Z,994.28
2019-02-02T10:56:55.004Z,994.29
2019-02-02T10:57:54.482Z,994.28
2019-02-02T10:58:39.114Z,994.28
2019-02-02T10:59:29.740Z,994.34
2019-02-02T11:00:29.620Z,994.31
2019-02-02T11:01:29.750Z,994.33
2019-02-02T11:02:29.893Z,994.30
2019-02-02T11:03:30.096Z,994.33
2019-02-02T11:04:30.188Z,994.28
2019-02-02T11:05:30.384Z,994.28
2019-02-02T11:06:30.490Z,994.32
2019-02-02T11:07:30.712Z,994.30
2019-02-02T11:08:24.846Z,994.34
2019-02-02T11:09:24.882Z,994.28
2019-02-02T11:10:24.976Z,994.30
2019-02-02T11:11:25.051Z,994.34
2019-02-02T11:12:25.175Z,994.35
